createdAt,value
2022-08-11T00:02:06.799Z,96251.16
2022-08-11T00:07:18.792Z,96246.25
2022-08-11T00:12:21.830Z,96240.97
2022-08-11T00:17:29.087Z,96240.19
2022-08-11T00:22:33.356Z,96241.44
2022-08-11T00:27:38.170Z,96240.22
2022-08-11T00:32:46.566Z,96245.09
2022-08-11T00:37:51.226Z,96243.66
2022-08-11T00:43:02.983Z,96252.22
2022-08-11T00:48:16.299Z,96260.16
2022-08-11T00:53:34.042Z,96260.34
2022-08-11T00:59:34.943Z,96264.00
2022-08-11T01:05:05.614Z,96264.94
2022-08-11T01:10:27.521Z,96268.16
2022-08-11T01:16:15.744Z,96263.22
2022-08-11T01:22:02.795Z,96263.81
2022-08-11T01:27:40.847Z,96265.63
2022-08-11T01:33:34.824Z,96264.75
2022-08-11T01:39:02.077Z,96261.78
2022-08-11T01:44:39.543Z,96270.72
2022-08-11T01:50:08.114Z,96275.19
2022-08-11T01:55:24.144Z,96267.44
2022-08-11T02:00:30.514Z,96266.97
2022-08-11T02:06:01.130Z,96271.16
2022-08-11T02:11:35.673Z,96272.56
2022-08-11T02:17:05.394Z,96271.28
2022-08-11T02:22:32.628Z,96269.00
2022-08-11T02:27:47.086Z,96266.03
2022-08-11T02:33:14.209Z,96260.50
2022-08-11T02:38:25.622Z,96259.28
2022-08-11T02:43:41.707Z,96251.47
2022-08-11T02:49:15.850Z,96253.50
2022-08-11T02:54:25.135Z,96257.75
2022-08-11T02:59:51.438Z,96253.00
2022-08-11T03:05:08.171Z,96246.97
2022-08-11T03:10:19.350Z,96251.38
2022-08-11T03:16:01.228Z,96254.38
2022-08-11T03:21:11.038Z,96259.03
2022-08-11T03:26:25.280Z,96269.97
2022-08-11T03:31:34.235Z,96264.84
2022-08-11T03:37:16.712Z,96260.38
2022-08-11T03:42:31.310Z,96264.47
2022-08-11T03:47:58.840Z,96255.53
2022-08-11T03:53:13.609Z,96258.84
2022-08-11T03:58:58.092Z,96260.94
2022-08-11T04:04:35.551Z,96261.31
2022-08-11T04:10:11.284Z,96258.41
2022-08-11T04:16:11.559Z,96252.94
2022-08-11T04:21:47.826Z,96254.94
2022-08-11T04:27:14.597Z,96260.50
2022-08-11T04:32:48.336Z,96261.59
2022-08-11T04:38:11.146Z,96269.50
2022-08-11T04:44:02.109Z,96269.06
2022-08-11T04:49:52.058Z,96277.59
2022-08-11T04:55:27.776Z,96274.06
2022-08-11T05:01:09.951Z,96281.25
2022-08-11T05:07:05.620Z,96291.41
2022-08-11T05:12:32.133Z,96288.31
2022-08-11T05:18:00.831Z,96302.31
2022-08-11T05:23:27.477Z,96310.16
2022-08-11T05:28:51.759Z,96306.31
2022-08-11T05:34:17.802Z,96296.56
2022-08-11T05:39:42.491Z,96312.63
2022-08-11T05:45:04.545Z,96312.59
2022-08-11T05:50:38.014Z,96307.78
2022-08-11T05:56:02.962Z,96317.75
2022-08-11T06:01:07.772Z,96317.47
2022-08-11T06:06:12.324Z,96313.13
2022-08-11T06:11:17.897Z,96310.00
2022-08-11T06:16:24.871Z,96314.97
2022-08-11T06:21:29.346Z,96317.78
2022-08-11T06:26:40.840Z,96309.69
2022-08-11T06:31:59.247Z,96297.38
2022-08-11T06:37:18.491Z,96314.53
2022-08-11T06:42:45.505Z,96300.81
2022-08-11T06:47:49.486Z,96302.72
2022-08-11T06:52:54.896Z,96303.16
2022-08-11T06:58:15.881Z,96294.41
2022-08-11T07:03:21.310Z,96299.50
2022-08-11T07:09:01.610Z,96294.84
2022-08-11T07:14:23.657Z,96281.41
2022-08-11T07:19:43.216Z,96293.22
2022-08-11T07:25:13.146Z,96284.19
2022-08-11T07:30:18.267Z,96282.97
2022-08-11T07:35:29.188Z,96273.94
2022-08-11T07:40:35.045Z,96281.22
2022-08-11T07:46:00.602Z,96270.19
2022-08-11T07:51:21.301Z,96270.53
2022-08-11T07:56:49.831Z,96261.06
2022-08-11T08:02:06.317Z,96266.31
2022-08-11T08:07:26.725Z,96267.84
2022-08-11T08:12:51.153Z,96266.13
2022-08-11T08:18:20.693Z,96272.13
2022-08-11T08:23:33.193Z,96264.66
2022-08-11T08:28:38.230Z,96267.78
2022-08-11T08:33:43.087Z,96252.66
2022-08-11T08:38:49.915Z,96264.63
2022-08-11T08:44:21.083Z,96248.31
2022-08-11T08:49:27.973Z,96250.69
2022-08-11T08:54:37.473Z,96251.72
2022-08-11T08:59:48.680Z,96245.38
2022-08-11T09:04:52.953Z,96254.97
2022-08-11T09:09:59.278Z,96254.44
2022-08-11T09:15:07.970Z,96246.47
2022-08-11T09:20:14.286Z,96244.81
2022-08-11T09:25:35.070Z,96239.41
2022-08-11T09:30:42.642Z,96229.25
2022-08-11T09:35:47.780Z,96231.13
2022-08-11T09:40:56.143Z,96225.19
2022-08-11T09:46:02.201Z,96217.41
2022-08-11T09:51:05.828Z,96213.00
2022-08-11T09:56:30.267Z,96209.22
2022-08-11T10:01:41.621Z,96209.16
2022-08-11T10:07:06.830Z,96198.78
2022-08-11T10:12:12.951Z,96191.16
2022-08-11T10:17:19.909Z,96186.50
2022-08-11T10:22:40.238Z,96174.13
2022-08-11T10:28:16.903Z,96170.75
2022-08-11T10:33:37.746Z,96161.69
2022-08-11T10:38:42.115Z,96149.56
2022-08-11T10:44:03.268Z,96150.66
2022-08-11T10:49:09.319Z,96158.94
2022-08-11T10:54:29.909Z,96145.53
2022-08-11T10:59:35.960Z,96130.00
2022-08-11T11:04:53.709Z,96129.94
2022-08-11T11:10:00.094Z,96126.69
2022-08-11T11:15:23.197Z,96111.72
2022-08-11T11:20:37.832Z,96113.44
2022-08-11T11:26:10.173Z,96100.13
2022-08-11T11:31:23.502Z,96094.53
2022-08-11T11:36:33.155Z,96093.22
2022-08-11T11:41:37.011Z,96086.22
2022-08-11T11:46:40.842Z,96078.22
2022-08-11T11:51:50.204Z,96067.59
2022-08-11T11:56:55.777Z,96064.56
2022-08-11T12:01:59.022Z,96053.38
2022-08-11T12:07:17.712Z,96036.44
2022-08-11T12:12:39.395Z,96039.47
2022-08-11T12:17:42.326Z,96041.47
2022-08-11T12:23:04.231Z,96027.25
2022-08-11T12:28:07.257Z,96029.44
2022-08-11T12:33:10.323Z,96019.75
2022-08-11T12:38:17.953Z,96009.53
2022-08-11T12:43:56.962Z,96010.28
2022-08-11T12:49:21.166Z,96005.97
2022-08-11T12:54:29.651Z,95997.53
2022-08-11T12:59:50.982Z,95992.50
2022-08-11T13:04:59.303Z,95983.75
2022-08-11T13:10:05.711Z,95970.66
2022-08-11T13:15:11.290Z,95963.22
2022-08-11T13:20:15.259Z,95958.09
2022-08-11T13:25:22.011Z,95951.88
2022-08-11T13:30:47.130Z,95948.97
2022-08-11T13:35:55.848Z,95934.50
2022-08-11T13:41:00.603Z,95928.25
2022-08-11T13:46:17.442Z,95916.84
2022-08-11T13:51:34.754Z,95912.09
2022-08-11T13:56:43.514Z,95907.16
2022-08-11T14:02:20.286Z,95891.94
2022-08-11T14:07:18.737Z,95897.16
2022-08-11T14:12:44.253Z,95900.75
2022-08-11T14:17:53.032Z,95886.94
2022-08-11T14:22:56.488Z,95889.66
2022-08-11T14:28:31.820Z,95883.13
2022-08-11T14:33:23.878Z,95875.38
2022-08-11T14:38:43.121Z,95877.44
2022-08-11T14:44:13.656Z,95874.03
2022-08-11T14:49:17.805Z,95873.53
2022-08-11T14:54:38.005Z,95863.78
2022-08-11T14:59:43.582Z,95859.19
2022-08-11T15:04:46.834Z,95857.22
2022-08-11T15:10:12.254Z,95853.06
2022-08-11T15:15:32.082Z,95846.66
2022-08-11T15:21:08.042Z,95837.63
2022-08-11T15:26:14.886Z,95840.56
2022-08-11T15:31:38.439Z,95842.97
2022-08-11T15:37:01.637Z,95846.09
2022-08-11T15:42:27.181Z,95840.56
2022-08-11T15:47:41.740Z,95837.59
2022-08-11T15:52:53.671Z,95836.44
2022-08-11T15:58:17.804Z,95832.88
2022-08-11T16:04:06.131Z,95825.44
2022-08-11T16:09:18.075Z,95816.06
2022-08-11T16:14:41.371Z,95824.00
2022-08-11T16:19:50.086Z,95818.53
2022-08-11T16:27:03.405Z,95806.56
2022-08-11T16:30:17.750Z,95804.63
2022-08-11T16:35:43.281Z,95780.31
2022-08-11T16:40:47.934Z,95793.56
2022-08-11T16:46:08.475Z,95795.94
2022-08-11T16:51:14.515Z,95786.66
2022-08-11T16:56:21.229Z,95798.28
2022-08-11T17:01:26.589Z,95797.41
2022-08-11T17:06:48.709Z,95795.41
2022-08-11T17:12:12.021Z,95797.09
2022-08-11T17:17:19.122Z,95793.75
2022-08-11T17:22:41.626Z,95791.97
2022-08-11T17:27:45.606Z,95797.31
2022-08-11T17:33:11.034Z,95803.72
2022-08-11T17:38:17.631Z,95793.44
2022-08-11T17:43:37.712Z,95801.75
2022-08-11T17:48:47.336Z,95809.09
2022-08-11T17:54:23.621Z,95817.16
2022-08-11T17:59:49.066Z,95808.75
2022-08-11T18:04:54.997Z,95811.72
2022-08-11T18:10:17.902Z,95807.84
2022-08-11T18:15:38.472Z,95813.81
2022-08-11T18:21:10.903Z,95824.63
2022-08-11T18:26:36.686Z,95820.41
2022-08-11T18:32:02.494Z,95831.94
2022-08-11T18:37:29.009Z,95828.59
2022-08-11T18:42:52.452Z,95835.16
2022-08-11T20:48:46.074Z,95949.28
2022-08-11T20:54:07.699Z,95949.09
2022-08-11T20:59:30.110Z,95946.13
2022-08-11T21:04:57.490Z,95948.94
2022-08-11T21:10:23.289Z,95962.50
2022-08-11T21:16:02.987Z,95965.75
2022-08-11T21:21:27.785Z,95959.84
2022-08-11T21:26:51.728Z,95960.94
2022-08-11T21:32:13.743Z,95962.59
2022-08-11T21:37:37.891Z,95963.06
2022-08-11T21:43:02.276Z,95969.47
2022-08-11T21:48:24.278Z,95966.78
2022-08-11T21:53:46.693Z,95971.09
2022-08-11T21:59:08.027Z,95975.94
2022-08-11T22:04:29.491Z,95978.00
2022-08-11T22:09:51.378Z,95978.34
2022-08-11T22:15:12.801Z,95969.38
2022-08-11T22:20:33.103Z,95980.03
2022-08-11T22:25:59.695Z,95988.19
2022-08-11T22:31:24.787Z,95981.06
2022-08-11T22:36:46.208Z,95970.53
2022-08-11T22:42:07.960Z,95980.59
2022-08-11T22:47:38.360Z,95977.66
2022-08-11T22:53:01.649Z,95978.25
2022-08-11T22:58:24.828Z,95978.63
2022-08-11T23:03:45.334Z,95971.81
2022-08-11T23:09:06.871Z,95970.44
2022-08-11T23:14:28.936Z,95978.56
2022-08-11T23:20:01.848Z,95973.09
2022-08-11T23:25:31.039Z,95980.59
2022-08-11T23:30:54.025Z,95973.09
2022-08-11T23:36:35.900Z,95984.22
2022-08-11T23:41:55.905Z,95999.19
2022-08-11T23:47:19.282Z,96002.63
2022-08-11T23:52:41.327Z,96006.16
2022-08-11T23:58:02.366Z,96010.84
